Time;durP1;ratioP1;P1;durP2;ratioP2;P2;SDS_P1;SDS_P2;PMS_P1;PMS_P2;Temp;Humidity;BMP_temperature;BMP_pressure;BME280_temperature;BME280_humidity;BME280_pressure;Samples;Min_cycle;Max_cycle;Signal;HPM_P1;HPM_P2
2022/05/02 00:00:21;;;;;;;;;;;21.60;38.30;;;;;;487222;245;1061;-76
2022/05/02 00:02:22;;;;;;;;;;;21.60;38.40;;;;;;487264;245;1081;-76
2022/05/02 00:04:23;;;;;;;;;;;21.60;38.40;;;;;;486973;245;1068;-76
2022/05/02 00:06:25;;;;;;;;;;;21.60;38.40;;;;;;487019;245;1093;-76
2022/05/02 00:08:29;;;;;;;;;;;21.50;38.50;;;;;;486990;245;1284;-76
2022/05/02 00:10:27;;;;;;;;;;;21.50;38.40;;;;;;486966;245;1533;-76
2022/05/02 00:12:29;;;;;;;;;;;21.40;38.50;;;;;;486995;245;2131;-76
2022/05/02 00:14:30;;;;;;;;;;;21.60;38.30;;;;;;487005;245;1029;-76
2022/05/02 00:16:31;;;;;;;;;;;21.30;38.40;;;;;;487044;245;1190;-76
2022/05/02 00:18:33;;;;;;;;;;;21.50;38.40;;;;;;486979;245;1127;-76
2022/05/02 00:20:34;;;;;;;;;;;21.40;38.50;;;;;;487067;245;1077;-76
2022/05/02 00:22:35;;;;;;;;;;;21.30;38.50;;;;;;487059;245;1224;-76
2022/05/02 00:24:37;;;;;;;;;;;21.40;38.50;;;;;;487070;245;1171;-76
2022/05/02 00:26:38;;;;;;;;;;;21.30;38.50;;;;;;486991;245;1208;-76
2022/05/02 00:28:40;;;;;;;;;;;21.40;38.40;;;;;;487263;245;1162;-76
2022/05/02 00:30:41;;;;;;;;;;;21.50;38.20;;;;;;486975;245;1233;-76
2022/05/02 00:32:42;;;;;;;;;;;21.40;38.10;;;;;;486862;245;2194;-76
2022/05/02 00:34:44;;;;;;;;;;;21.40;38.20;;;;;;486942;245;1066;-76
2022/05/02 00:36:45;;;;;;;;;;;21.40;38.30;;;;;;486876;245;1249;-76
2022/05/02 00:38:47;;;;;;;;;;;21.50;38.20;;;;;;487027;245;1030;-76
2022/05/02 00:40:48;;;;;;;;;;;21.60;38.10;;;;;;486973;245;1486;-76
2022/05/02 00:42:50;;;;;;;;;;;21.60;37.90;;;;;;487061;245;1086;-76
2022/05/02 00:44:51;;;;;;;;;;;21.60;37.90;;;;;;486929;245;1094;-76
2022/05/02 00:46:52;;;;;;;;;;;21.60;38.00;;;;;;486963;245;1183;-75
2022/05/02 00:48:54;;;;;;;;;;;21.60;37.80;;;;;;486951;245;985;-76
2022/05/02 00:50:55;;;;;;;;;;;21.50;37.90;;;;;;487000;245;982;-76
2022/05/02 00:52:56;;;;;;;;;;;21.60;37.80;;;;;;487069;245;2180;-76
2022/05/02 00:54:58;;;;;;;;;;;21.40;37.90;;;;;;486958;245;1070;-76
2022/05/02 00:56:59;;;;;;;;;;;21.40;37.90;;;;;;487006;245;1341;-76
2022/05/02 00:59:00;;;;;;;;;;;21.50;37.90;;;;;;487077;245;1179;-76
2022/05/02 01:01:02;;;;;;;;;;;21.50;37.70;;;;;;487105;245;1070;-76
2022/05/02 01:03:03;;;;;;;;;;;21.50;37.60;;;;;;487000;245;1170;-76
2022/05/02 01:05:04;;;;;;;;;;;21.50;37.70;;;;;;487020;245;1043;-76
2022/05/02 01:07:12;;;;;;;;;;;21.50;37.80;;;;;;486936;245;1119;-76
2022/05/02 01:09:13;;;;;;;;;;;21.60;37.40;;;;;;487005;245;1124;-76
2022/05/02 01:11:14;;;;;;;;;;;21.60;37.50;;;;;;486978;245;1196;-76
2022/05/02 01:13:16;;;;;;;;;;;21.40;37.50;;;;;;487058;245;2179;-76
2022/05/02 01:15:17;;;;;;;;;;;21.30;37.60;;;;;;487015;245;1052;-76
2022/05/02 01:17:18;;;;;;;;;;;21.50;37.50;;;;;;487024;245;1076;-76
2022/05/02 01:19:20;;;;;;;;;;;21.50;37.50;;;;;;487169;245;1062;-76
2022/05/02 01:21:21;;;;;;;;;;;21.50;37.50;;;;;;486975;245;1225;-76
2022/05/02 01:23:22;;;;;;;;;;;21.50;37.50;;;;;;487049;245;1149;-76
2022/05/02 01:25:24;;;;;;;;;;;21.50;37.30;;;;;;487069;245;1208;-76
2022/05/02 01:27:25;;;;;;;;;;;21.50;37.40;;;;;;486889;245;1064;-76
2022/05/02 01:29:26;;;;;;;;;;;21.50;37.40;;;;;;487125;244;1162;-76
2022/05/02 01:31:28;;;;;;;;;;;21.60;37.20;;;;;;487020;245;1352;-76
2022/05/02 01:33:29;;;;;;;;;;;21.40;37.40;;;;;;486961;245;2194;-76
2022/05/02 01:35:30;;;;;;;;;;;21.40;37.40;;;;;;487012;245;1153;-76
2022/05/02 01:37:32;;;;;;;;;;;21.30;37.60;;;;;;486986;245;1226;-76
2022/05/02 01:39:33;;;;;;;;;;;21.30;37.60;;;;;;487036;245;1111;-76
2022/05/02 01:41:34;;;;;;;;;;;21.40;37.50;;;;;;487047;245;1426;-76
2022/05/02 01:43:36;;;;;;;;;;;21.40;37.30;;;;;;487029;245;1061;-76
2022/05/02 01:45:37;;;;;;;;;;;21.40;37.30;;;;;;487330;245;1207;-76
2022/05/02 01:47:38;;;;;;;;;;;21.60;37.30;;;;;;487190;245;1123;-76
2022/05/02 01:49:40;;;;;;;;;;;21.50;37.20;;;;;;487019;245;1009;-76
2022/05/02 01:51:41;;;;;;;;;;;21.30;37.30;;;;;;487012;245;1223;-76
2022/05/02 01:53:42;;;;;;;;;;;21.40;37.30;;;;;;487048;245;2118;-76
2022/05/02 01:55:44;;;;;;;;;;;21.50;37.10;;;;;;486980;245;1069;-76
2022/05/02 01:57:47;;;;;;;;;;;21.50;37.10;;;;;;486949;245;1078;-76
2022/05/02 01:59:46;;;;;;;;;;;21.60;36.80;;;;;;487058;245;1374;-76
2022/05/02 02:01:48;;;;;;;;;;;21.60;36.80;;;;;;487110;245;1052;-76
2022/05/02 02:03:49;;;;;;;;;;;21.50;36.80;;;;;;487140;245;1099;-76
2022/05/02 02:05:50;;;;;;;;;;;21.50;36.80;;;;;;486945;245;1048;-76
2022/05/02 02:07:52;;;;;;;;;;;21.60;36.80;;;;;;486922;245;1207;-76
2022/05/02 02:09:53;;;;;;;;;;;21.40;36.80;;;;;;487051;245;1016;-76
2022/05/02 02:11:55;;;;;;;;;;;21.50;36.80;;;;;;486990;245;1017;-76
2022/05/02 02:13:56;;;;;;;;;;;21.50;36.70;;;;;;486966;245;2127;-76
2022/05/02 02:15:57;;;;;;;;;;;21.50;36.60;;;;;;487089;245;1097;-76
2022/05/02 02:17:58;;;;;;;;;;;21.60;36.60;;;;;;487034;245;1072;-76
2022/05/02 02:20:00;;;;;;;;;;;21.40;36.70;;;;;;486931;245;1119;-76
2022/05/02 02:22:16;;;;;;;;;;;21.50;36.70;;;;;;486952;245;1108;-76
2022/05/02 02:24:02;;;;;;;;;;;21.40;36.70;;;;;;485836;245;1440;-76
2022/05/02 02:26:04;;;;;;;;;;;21.40;36.70;;;;;;486981;245;1102;-76
2022/05/02 02:28:05;;;;;;;;;;;21.40;36.70;;;;;;487163;245;1162;-76
2022/05/02 02:30:06;;;;;;;;;;;21.50;36.70;;;;;;487021;245;1225;-76
2022/05/02 02:32:08;;;;;;;;;;;21.40;36.80;;;;;;487066;245;1084;-76
2022/05/02 02:34:09;;;;;;;;;;;21.40;36.80;;;;;;486988;245;2181;-76
2022/05/02 02:36:10;;;;;;;;;;;21.40;36.80;;;;;;486875;245;1129;-76
2022/05/02 02:38:13;;;;;;;;;;;21.30;36.60;;;;;;486976;245;1052;-76
2022/05/02 02:40:14;;;;;;;;;;;21.40;36.70;;;;;;487030;245;1042;-76
2022/05/02 02:42:16;;;;;;;;;;;21.30;36.90;;;;;;487046;245;1211;-76
2022/05/02 02:44:17;;;;;;;;;;;21.50;36.60;;;;;;486983;245;1141;-76
2022/05/02 02:46:18;;;;;;;;;;;21.40;36.50;;;;;;486932;245;1338;-76
2022/05/02 02:48:20;;;;;;;;;;;21.30;36.60;;;;;;487032;245;1116;-76
2022/05/02 02:50:21;;;;;;;;;;;21.40;36.60;;;;;;487075;245;1032;-76
2022/05/02 02:52:22;;;;;;;;;;;21.40;36.60;;;;;;486957;245;1073;-76
2022/05/02 02:54:23;;;;;;;;;;;21.30;36.60;;;;;;486978;245;2198;-76
2022/05/02 02:56:25;;;;;;;;;;;21.40;36.60;;;;;;486909;243;1216;-76
2022/05/02 02:58:26;;;;;;;;;;;21.30;36.60;;;;;;486946;245;1099;-76
2022/05/02 03:00:28;;;;;;;;;;;21.50;36.40;;;;;;487183;245;1216;-76
2022/05/02 03:02:29;;;;;;;;;;;21.50;36.40;;;;;;486861;245;1172;-76
2022/05/02 03:06:49;;;;;;;;;;;21.30;36.40;;;;;;487051;245;1024;-76
2022/05/02 03:08:51;;;;;;;;;;;21.40;36.30;;;;;;487043;245;981;-76
2022/05/02 03:10:52;;;;;;;;;;;21.40;36.40;;;;;;487042;245;1049;-76
2022/05/02 03:12:53;;;;;;;;;;;21.40;36.50;;;;;;487026;245;1046;-76
2022/05/02 03:14:55;;;;;;;;;;;21.30;36.50;;;;;;487146;245;2138;-76
2022/05/02 03:16:56;;;;;;;;;;;21.40;36.40;;;;;;487012;245;1099;-76
2022/05/02 03:18:57;;;;;;;;;;;21.50;36.20;;;;;;487009;245;992;-76
2022/05/02 03:20:59;;;;;;;;;;;21.50;36.30;;;;;;487083;245;1061;-76
2022/05/02 03:23:00;;;;;;;;;;;21.40;36.20;;;;;;486964;245;1074;-76
2022/05/02 03:25:01;;;;;;;;;;;21.40;36.30;;;;;;487028;245;1074;-76
2022/05/02 03:27:03;;;;;;;;;;;21.40;36.30;;;;;;486872;245;1102;-76
2022/05/02 03:29:04;;;;;;;;;;;21.50;36.20;;;;;;487022;245;1028;-76
2022/05/02 03:31:05;;;;;;;;;;;21.30;36.20;;;;;;487100;245;1142;-76
2022/05/02 03:33:07;;;;;;;;;;;21.50;36.10;;;;;;487071;245;1165;-76
2022/05/02 03:35:08;;;;;;;;;;;21.30;36.30;;;;;;487015;245;2183;-76
2022/05/02 03:37:09;;;;;;;;;;;21.30;36.40;;;;;;487005;245;1273;-76
2022/05/02 03:39:11;;;;;;;;;;;21.30;36.20;;;;;;487133;245;1094;-76
2022/05/02 03:41:12;;;;;;;;;;;21.30;36.30;;;;;;486974;245;1302;-75
2022/05/02 03:43:13;;;;;;;;;;;21.40;36.30;;;;;;487119;245;1118;-76
2022/05/02 03:45:15;;;;;;;;;;;21.40;36.20;;;;;;487055;245;1127;-76
2022/05/02 03:47:16;;;;;;;;;;;21.40;36.20;;;;;;487162;245;1190;-76
2022/05/02 03:49:17;;;;;;;;;;;21.30;36.30;;;;;;486997;245;1087;-76
2022/05/02 03:51:19;;;;;;;;;;;21.30;36.20;;;;;;486889;245;1226;-76
2022/05/02 03:53:20;;;;;;;;;;;21.40;36.10;;;;;;487063;245;1404;-76
2022/05/02 03:55:21;;;;;;;;;;;21.30;36.20;;;;;;486946;245;2187;-76
2022/05/02 03:57:23;;;;;;;;;;;21.20;36.20;;;;;;486951;245;1181;-76
2022/05/02 03:59:24;;;;;;;;;;;21.40;36.00;;;;;;487001;245;1078;-76
2022/05/02 04:01:25;;;;;;;;;;;21.40;35.90;;;;;;487171;245;1190;-76
2022/05/02 04:03:27;;;;;;;;;;;21.40;35.90;;;;;;486930;245;1095;-76
2022/05/02 04:05:28;;;;;;;;;;;21.40;35.90;;;;;;486875;245;1074;-76
2022/05/02 04:07:29;;;;;;;;;;;21.40;35.90;;;;;;486901;245;1031;-76
2022/05/02 04:09:31;;;;;;;;;;;21.40;35.90;;;;;;487195;245;1042;-76
2022/05/02 04:11:32;;;;;;;;;;;21.30;35.80;;;;;;486799;245;1218;-76
2022/05/02 04:13:33;;;;;;;;;;;21.50;35.80;;;;;;486945;245;2198;-76
2022/05/02 04:15:35;;;;;;;;;;;21.30;35.90;;;;;;486925;245;1183;-76
2022/05/02 04:17:36;;;;;;;;;;;21.40;35.80;;;;;;486884;245;1090;-76
2022/05/02 04:19:37;;;;;;;;;;;21.40;35.70;;;;;;486885;245;1038;-76
2022/05/02 04:21:38;;;;;;;;;;;21.50;35.70;;;;;;486845;245;1254;-76
2022/05/02 04:23:40;;;;;;;;;;;21.40;35.80;;;;;;486950;245;1106;-76
2022/05/02 04:25:41;;;;;;;;;;;21.40;36.00;;;;;;486899;245;1174;-76
2022/05/02 04:27:43;;;;;;;;;;;21.30;36.00;;;;;;486914;245;1106;-76
2022/05/02 04:29:44;;;;;;;;;;;21.30;35.90;;;;;;486973;245;1492;-76
2022/05/02 04:31:45;;;;;;;;;;;21.40;36.00;;;;;;486937;245;1194;-76
2022/05/02 04:33:46;;;;;;;;;;;21.50;35.90;;;;;;486834;245;2198;-76
2022/05/02 04:35:48;;;;;;;;;;;21.30;36.20;;;;;;486898;245;1200;-76
2022/05/02 04:37:49;;;;;;;;;;;21.30;36.20;;;;;;486918;245;1221;-76
2022/05/02 04:39:50;;;;;;;;;;;21.40;36.00;;;;;;486897;245;1185;-75
2022/05/02 04:41:52;;;;;;;;;;;21.20;36.30;;;;;;486768;245;1177;-76
2022/05/02 04:43:54;;;;;;;;;;;21.50;36.10;;;;;;486782;245;1116;-76
2022/05/02 04:45:54;;;;;;;;;;;21.50;36.00;;;;;;486842;245;1252;-76
2022/05/02 04:47:57;;;;;;;;;;;21.40;36.20;;;;;;486838;245;1081;-76
2022/05/02 04:49:57;;;;;;;;;;;21.40;36.10;;;;;;486946;245;1299;-76
2022/05/02 04:51:58;;;;;;;;;;;21.30;36.40;;;;;;486797;245;1237;-76
2022/05/02 04:54:00;;;;;;;;;;;21.40;36.10;;;;;;486775;245;2205;-76
2022/05/02 04:56:01;;;;;;;;;;;21.50;36.20;;;;;;486762;245;1418;-76
2022/05/02 04:58:02;;;;;;;;;;;21.50;36.20;;;;;;486792;245;1113;-76
2022/05/02 05:00:04;;;;;;;;;;;21.30;36.40;;;;;;487058;245;1212;-76
2022/05/02 05:02:05;;;;;;;;;;;21.40;36.40;;;;;;486740;245;1220;-76
2022/05/02 05:04:06;;;;;;;;;;;21.30;36.40;;;;;;486739;245;1102;-76
2022/05/02 05:06:08;;;;;;;;;;;21.40;36.30;;;;;;486707;245;1334;-76
2022/05/02 05:08:09;;;;;;;;;;;21.50;36.50;;;;;;486668;245;1243;-76
2022/05/02 05:10:11;;;;;;;;;;;21.50;36.40;;;;;;486746;245;1037;-76
2022/05/02 05:12:12;;;;;;;;;;;21.30;36.60;;;;;;486750;245;1422;-76
2022/05/02 05:16:32;;;;;;;;;;;21.30;36.60;;;;;;486841;245;1546;-76
2022/05/02 05:18:34;;;;;;;;;;;21.40;36.70;;;;;;486768;245;1061;-76
2022/05/02 05:20:35;;;;;;;;;;;21.40;36.70;;;;;;486731;245;1166;-76
2022/05/02 05:22:36;;;;;;;;;;;21.30;36.90;;;;;;486900;245;1208;-76
2022/05/02 05:24:38;;;;;;;;;;;21.30;36.90;;;;;;486825;245;1163;-76
2022/05/02 05:26:39;;;;;;;;;;;21.40;37.00;;;;;;486780;245;1152;-76
2022/05/02 05:28:40;;;;;;;;;;;21.30;37.20;;;;;;486580;245;1172;-76
2022/05/02 05:30:42;;;;;;;;;;;21.40;37.30;;;;;;486664;245;1221;-76
2022/05/02 05:32:44;;;;;;;;;;;21.20;37.40;;;;;;486672;245;1206;-76
2022/05/02 05:34:45;;;;;;;;;;;21.20;37.60;;;;;;486739;245;2127;-76
2022/05/02 05:36:47;;;;;;;;;;;21.30;37.70;;;;;;486606;245;1182;-76
2022/05/02 05:38:48;;;;;;;;;;;21.10;37.80;;;;;;486588;245;1103;-76
2022/05/02 05:40:50;;;;;;;;;;;21.30;37.80;;;;;;486648;245;1148;-76
2022/05/02 05:42:51;;;;;;;;;;;21.40;37.70;;;;;;486731;245;1567;-76
2022/05/02 05:44:52;;;;;;;;;;;21.40;37.70;;;;;;486530;245;1071;-76
2022/05/02 05:46:53;;;;;;;;;;;21.50;37.70;;;;;;486631;245;1152;-76
2022/05/02 05:48:55;;;;;;;;;;;21.60;37.60;;;;;;486644;245;1061;-76
2022/05/02 05:50:56;;;;;;;;;;;21.60;37.60;;;;;;486530;243;1372;-76
2022/05/02 05:52:57;;;;;;;;;;;21.60;37.70;;;;;;486597;245;1047;-76
2022/05/02 05:54:59;;;;;;;;;;;21.60;37.70;;;;;;486490;245;2232;-76
2022/05/02 05:57:00;;;;;;;;;;;21.50;37.90;;;;;;486452;245;1225;-76
2022/05/02 05:59:01;;;;;;;;;;;21.50;38.20;;;;;;486534;245;1123;-76
2022/05/02 06:01:03;;;;;;;;;;;21.60;38.10;;;;;;486587;245;1419;-76
2022/05/02 06:03:04;;;;;;;;;;;21.50;38.40;;;;;;486636;245;1115;-76
2022/05/02 06:05:05;;;;;;;;;;;21.60;38.40;;;;;;486501;245;1060;-76
2022/05/02 06:07:07;;;;;;;;;;;21.50;38.50;;;;;;486398;245;1203;-76
2022/05/02 06:09:08;;;;;;;;;;;21.60;38.60;;;;;;486525;245;1037;-76
2022/05/02 06:11:09;;;;;;;;;;;21.50;38.60;;;;;;486683;245;1160;-76
2022/05/02 06:13:11;;;;;;;;;;;21.70;38.60;;;;;;486434;245;1127;-76
2022/05/02 06:19:50;;;;;;;;;;;21.60;38.80;;;;;;486456;245;1050;-76
2022/05/02 06:21:51;;;;;;;;;;;21.70;38.90;;;;;;486375;245;1151;-76
2022/05/02 06:23:53;;;;;;;;;;;21.60;39.10;;;;;;486540;245;1187;-76
2022/05/02 06:25:54;;;;;;;;;;;21.60;39.10;;;;;;486442;245;1127;-76
2022/05/02 06:27:55;;;;;;;;;;;21.70;39.10;;;;;;486660;245;1187;-76
2022/05/02 06:29:57;;;;;;;;;;;21.80;38.90;;;;;;486373;245;1308;-76
2022/05/02 06:31:59;;;;;;;;;;;22.00;38.70;;;;;;486503;245;1202;-76
2022/05/02 06:34:00;;;;;;;;;;;21.80;39.10;;;;;;486475;245;1368;-76
2022/05/02 06:36:01;;;;;;;;;;;21.60;39.30;;;;;;486349;245;2119;-76
2022/05/02 06:38:02;;;;;;;;;;;21.70;39.40;;;;;;486287;245;1177;-76
2022/05/02 06:40:04;;;;;;;;;;;21.60;39.80;;;;;;486336;245;1079;-76
2022/05/02 06:42:05;;;;;;;;;;;21.70;39.60;;;;;;486319;243;1231;-76
2022/05/02 06:44:06;;;;;;;;;;;21.60;39.70;;;;;;486274;245;1122;-76
2022/05/02 06:46:08;;;;;;;;;;;21.60;39.90;;;;;;486032;245;1430;-76
2022/05/02 06:48:09;;;;;;;;;;;21.60;40.00;;;;;;486224;245;1114;-76
2022/05/02 06:50:10;;;;;;;;;;;21.60;39.90;;;;;;486116;245;1149;-76
2022/05/02 06:52:12;;;;;;;;;;;21.70;39.90;;;;;;486170;245;1418;-76
2022/05/02 06:54:13;;;;;;;;;;;21.60;40.10;;;;;;486035;245;1077;-76
2022/05/02 06:56:15;;;;;;;;;;;21.70;40.10;;;;;;486057;245;2175;-76
2022/05/02 06:58:16;;;;;;;;;;;21.70;40.30;;;;;;486058;245;1467;-76
2022/05/02 07:00:17;;;;;;;;;;;21.70;40.30;;;;;;485764;245;1122;-76
2022/05/02 07:02:18;;;;;;;;;;;21.50;40.60;;;;;;485793;245;1287;-76
2022/05/02 07:04:20;;;;;;;;;;;21.70;40.60;;;;;;485901;245;1112;-76
2022/05/02 07:06:21;;;;;;;;;;;21.60;40.60;;;;;;485928;245;1054;-76
2022/05/02 07:08:22;;;;;;;;;;;21.70;40.50;;;;;;485871;245;1062;-76
2022/05/02 07:10:24;;;;;;;;;;;21.70;40.60;;;;;;485932;245;1109;-76
2022/05/02 07:12:25;;;;;;;;;;;21.70;40.60;;;;;;485682;245;1196;-76
2022/05/02 07:14:26;;;;;;;;;;;21.80;40.70;;;;;;485708;245;978;-76
2022/05/02 07:16:28;;;;;;;;;;;21.60;40.80;;;;;;485796;245;2190;-76
2022/05/02 07:18:29;;;;;;;;;;;21.70;40.80;;;;;;485811;245;1127;-76
2022/05/02 07:20:30;;;;;;;;;;;21.70;40.80;;;;;;485940;245;1090;-76
2022/05/02 07:22:32;;;;;;;;;;;21.80;40.70;;;;;;485964;245;1276;-76
2022/05/02 07:24:33;;;;;;;;;;;21.90;40.70;;;;;;485907;245;1148;-76
2022/05/02 07:26:34;;;;;;;;;;;21.70;40.70;;;;;;485955;245;1151;-76
2022/05/02 07:28:36;;;;;;;;;;;21.70;40.80;;;;;;485964;245;1000;-76
2022/05/02 07:30:37;;;;;;;;;;;21.70;40.80;;;;;;485900;245;1244;-76
2022/05/02 07:32:38;;;;;;;;;;;21.80;40.80;;;;;;485758;245;1215;-76
2022/05/02 07:34:40;;;;;;;;;;;21.70;40.90;;;;;;485794;245;1123;-76
2022/05/02 07:36:41;;;;;;;;;;;21.60;41.20;;;;;;485689;243;2201;-76
2022/05/02 07:38:42;;;;;;;;;;;21.60;41.00;;;;;;485810;245;1062;-76
2022/05/02 07:41:22;;;;;;;;;;;21.70;41.20;;;;;;486031;245;1178;-76
2022/05/02 07:42:45;;;;;;;;;;;21.50;41.30;;;;;;484669;245;1284;-76
2022/05/02 07:44:46;;;;;;;;;;;21.60;41.20;;;;;;486094;245;1086;-76
2022/05/02 07:46:49;;;;;;;;;;;21.60;41.20;;;;;;485875;245;1256;-76
2022/05/02 07:48:49;;;;;;;;;;;21.70;41.20;;;;;;485952;245;1350;-76
2022/05/02 07:50:51;;;;;;;;;;;21.60;41.10;;;;;;486054;245;1459;-76
2022/05/02 07:52:52;;;;;;;;;;;21.70;41.00;;;;;;486034;245;1108;-76
2022/05/02 07:54:53;;;;;;;;;;;21.70;41.00;;;;;;486108;245;2134;-76
2022/05/02 07:56:55;;;;;;;;;;;21.80;40.90;;;;;;486182;245;1164;-76
2022/05/02 07:58:57;;;;;;;;;;;21.80;41.00;;;;;;485932;245;1073;-76
2022/05/02 08:00:57;;;;;;;;;;;21.70;41.20;;;;;;485482;243;1334;-76
2022/05/02 08:02:59;;;;;;;;;;;21.70;41.10;;;;;;485681;245;1335;-76
2022/05/02 08:05:00;;;;;;;;;;;21.60;41.30;;;;;;485891;245;1047;-76
2022/05/02 08:07:01;;;;;;;;;;;21.70;41.20;;;;;;486222;245;1125;-76
2022/05/02 08:09:03;;;;;;;;;;;21.70;41.10;;;;;;485996;245;1059;-76
2022/05/02 08:11:05;;;;;;;;;;;21.10;42.10;;;;;;485950;245;1198;-76
2022/05/02 08:13:06;;;;;;;;;;;21.00;42.70;;;;;;485473;245;1243;-76
2022/05/02 08:15:08;;;;;;;;;;;21.10;42.60;;;;;;485544;245;2268;-76
2022/05/02 08:17:08;;;;;;;;;;;21.20;42.40;;;;;;484490;245;1928;-76
2022/05/02 08:19:10;;;;;;;;;;;21.30;42.60;;;;;;485617;245;1241;-76
2022/05/02 08:21:11;;;;;;;;;;;21.40;42.30;;;;;;485087;245;1516;-76
2022/05/02 08:27:51;;;;;;;;;;;21.60;42.20;;;;;;486162;245;1192;-76
2022/05/02 08:29:53;;;;;;;;;;;21.60;42.20;;;;;;485735;245;1246;-76
2022/05/02 08:31:54;;;;;;;;;;;21.50;42.40;;;;;;485688;243;1191;-76
2022/05/02 08:33:55;;;;;;;;;;;21.50;42.40;;;;;;485830;245;1211;-76
2022/05/02 08:35:57;;;;;;;;;;;21.40;42.60;;;;;;485934;245;2195;-76
2022/05/02 08:37:58;;;;;;;;;;;21.50;42.50;;;;;;485863;245;1138;-76
2022/05/02 08:40:00;;;;;;;;;;;21.30;42.90;;;;;;485875;245;1123;-76
2022/05/02 08:42:01;;;;;;;;;;;21.40;43.10;;;;;;486303;245;1192;-76
2022/05/02 08:44:02;;;;;;;;;;;21.30;43.20;;;;;;486081;245;1149;-76
2022/05/02 08:46:04;;;;;;;;;;;21.50;42.90;;;;;;486388;245;1494;-76
2022/05/02 08:48:05;;;;;;;;;;;21.40;43.00;;;;;;485967;245;1190;-76
2022/05/02 08:50:06;;;;;;;;;;;21.30;43.20;;;;;;486057;245;1073;-76
2022/05/02 08:52:08;;;;;;;;;;;21.20;43.50;;;;;;485835;245;1287;-76
2022/05/02 08:54:09;;;;;;;;;;;21.10;43.70;;;;;;485798;245;1052;-76
2022/05/02 08:56:11;;;;;;;;;;;21.30;43.50;;;;;;485764;245;2131;-76
2022/05/02 08:58:12;;;;;;;;;;;21.30;43.50;;;;;;485846;245;1101;-76
2022/05/02 09:00:14;;;;;;;;;;;21.30;43.50;;;;;;485918;245;1042;-76
2022/05/02 09:02:15;;;;;;;;;;;21.40;43.50;;;;;;485978;245;1337;-76
2022/05/02 09:04:16;;;;;;;;;;;21.30;43.60;;;;;;486196;245;1561;-76
2022/05/02 09:06:18;;;;;;;;;;;21.20;43.80;;;;;;486060;245;1098;-76
2022/05/02 09:08:19;;;;;;;;;;;21.40;43.60;;;;;;486004;245;1547;-76
2022/05/02 09:10:20;;;;;;;;;;;21.30;43.70;;;;;;486397;245;1035;-76
2022/05/02 09:12:22;;;;;;;;;;;21.30;43.90;;;;;;486097;245;1109;-76
2022/05/02 09:14:23;;;;;;;;;;;21.40;43.70;;;;;;485948;245;1046;-76
2022/05/02 09:16:25;;;;;;;;;;;21.30;43.70;;;;;;486049;243;2185;-76
2022/05/02 09:18:26;;;;;;;;;;;21.30;43.80;;;;;;486067;245;1237;-76
2022/05/02 09:20:27;;;;;;;;;;;21.30;43.80;;;;;;485879;245;1150;-76
2022/05/02 09:22:29;;;;;;;;;;;21.60;43.50;;;;;;486003;245;1122;-76
2022/05/02 09:24:30;;;;;;;;;;;21.50;43.60;;;;;;485909;245;1034;-76
2022/05/02 09:26:31;;;;;;;;;;;21.40;43.70;;;;;;486013;245;1555;-76
2022/05/02 09:28:33;;;;;;;;;;;21.60;43.60;;;;;;485974;245;1198;-76
2022/05/02 09:30:34;;;;;;;;;;;21.50;43.70;;;;;;485943;245;1322;-76
2022/05/02 09:32:35;;;;;;;;;;;21.50;43.60;;;;;;486085;245;1180;-76
2022/05/02 09:34:37;;;;;;;;;;;21.40;43.70;;;;;;485773;245;1168;-76
2022/05/02 09:36:38;;;;;;;;;;;21.40;43.70;;;;;;486135;245;2178;-76
2022/05/02 09:38:39;;;;;;;;;;;21.40;43.80;;;;;;485930;245;1094;-76
2022/05/02 09:40:41;;;;;;;;;;;21.40;43.80;;;;;;485948;245;1431;-76
2022/05/02 09:42:42;;;;;;;;;;;21.30;44.00;;;;;;485722;245;1453;-76
2022/05/02 09:49:37;;;;;;;;;;;21.40;44.00;;;;;;485916;245;1102;-76
2022/05/02 09:51:38;;;;;;;;;;;21.40;44.00;;;;;;486100;245;1302;-76
2022/05/02 09:53:39;;;;;;;;;;;21.40;43.90;;;;;;486159;245;1122;-75
2022/05/02 09:58:00;;;;;;;;;;;21.30;44.00;;;;;;486009;245;1329;-76
2022/05/02 10:02:23;;;;;;;;;;;21.30;44.20;;;;;;486073;245;1116;-76
2022/05/02 10:04:24;;;;;;;;;;;21.30;44.10;;;;;;486055;245;1206;-76
2022/05/02 10:06:25;;;;;;;;;;;21.30;44.00;;;;;;486105;245;1366;-76
2022/05/02 10:08:26;;;;;;;;;;;21.30;44.30;;;;;;485931;245;1103;-76
2022/05/02 10:10:28;;;;;;;;;;;21.30;44.20;;;;;;486417;245;1309;-76
2022/05/02 10:12:29;;;;;;;;;;;21.30;44.10;;;;;;485992;245;1219;-76
2022/05/02 10:14:30;;;;;;;;;;;21.30;44.20;;;;;;486235;245;1228;-76
2022/05/02 10:16:32;;;;;;;;;;;21.30;44.10;;;;;;486110;245;2198;-75
2022/05/02 10:18:33;;;;;;;;;;;21.40;44.10;;;;;;486401;245;1115;-75
2022/05/02 10:20:34;;;;;;;;;;;21.20;44.20;;;;;;485371;245;1560;-76
2022/05/02 10:22:36;;;;;;;;;;;21.20;44.10;;;;;;486015;245;1214;-76
2022/05/02 10:24:37;;;;;;;;;;;21.30;43.90;;;;;;486033;245;1105;-76
2022/05/02 10:26:38;;;;;;;;;;;21.20;44.10;;;;;;485983;245;1231;-75
2022/05/02 10:28:40;;;;;;;;;;;21.30;43.80;;;;;;485988;245;1121;-76
2022/05/02 10:30:41;;;;;;;;;;;21.40;43.80;;;;;;486081;245;1223;-75
2022/05/02 10:32:43;;;;;;;;;;;21.30;43.70;;;;;;486050;245;1211;-75
2022/05/02 10:34:44;;;;;;;;;;;21.40;43.60;;;;;;486131;245;1151;-75
2022/05/02 10:36:45;;;;;;;;;;;21.40;43.60;;;;;;486243;245;2191;-78
2022/05/02 10:38:47;;;;;;;;;;;21.40;43.60;;;;;;486235;245;1103;-76
2022/05/02 10:40:48;;;;;;;;;;;21.50;43.50;;;;;;486108;245;982;-76
2022/05/02 10:42:49;;;;;;;;;;;21.50;43.50;;;;;;486232;245;1366;-76
2022/05/02 10:44:51;;;;;;;;;;;21.60;43.30;;;;;;486041;245;1267;-76
2022/05/02 10:46:52;;;;;;;;;;;21.40;43.50;;;;;;485982;245;1102;-76
2022/05/02 10:48:53;;;;;;;;;;;21.50;43.30;;;;;;486133;245;1188;-76
2022/05/02 10:50:55;;;;;;;;;;;21.40;43.50;;;;;;486104;245;1234;-76
2022/05/02 10:52:56;;;;;;;;;;;21.30;43.50;;;;;;486105;245;1164;-76
2022/05/02 10:54:59;;;;;;;;;;;21.30;43.60;;;;;;486161;245;1063;-76
2022/05/02 10:56:59;;;;;;;;;;;21.40;43.50;;;;;;485927;245;2167;-75
2022/05/02 10:59:00;;;;;;;;;;;21.50;43.40;;;;;;485700;245;1083;-76
2022/05/02 11:01:01;;;;;;;;;;;21.50;43.40;;;;;;485869;245;1175;-76
2022/05/02 11:03:03;;;;;;;;;;;21.40;43.50;;;;;;485854;245;1030;-76
2022/05/02 11:05:04;;;;;;;;;;;21.30;43.70;;;;;;485951;245;1112;-76
2022/05/02 11:07:05;;;;;;;;;;;21.30;43.70;;;;;;486215;245;1093;-76
2022/05/02 11:09:07;;;;;;;;;;;21.30;43.60;;;;;;486013;245;1055;-76
2022/05/02 11:11:08;;;;;;;;;;;21.30;43.50;;;;;;485648;245;1188;-76
2022/05/02 11:13:09;;;;;;;;;;;21.30;43.60;;;;;;485622;245;1058;-76
2022/05/02 11:15:11;;;;;;;;;;;21.40;43.40;;;;;;485771;245;1079;-76
2022/05/02 11:17:12;;;;;;;;;;;21.50;43.30;;;;;;485844;245;2198;-76
2022/05/02 11:21:32;;;;;;;;;;;21.40;43.40;;;;;;486036;245;1446;-76
2022/05/02 11:23:34;;;;;;;;;;;21.30;43.30;;;;;;485842;245;1276;-76
2022/05/02 11:25:35;;;;;;;;;;;21.40;43.30;;;;;;485916;245;1398;-76
2022/05/02 11:27:37;;;;;;;;;;;21.20;43.50;;;;;;486103;245;1160;-76
2022/05/02 11:29:38;;;;;;;;;;;21.30;43.40;;;;;;486016;245;1041;-76
2022/05/02 11:31:39;;;;;;;;;;;21.40;43.20;;;;;;485993;245;1275;-76
2022/05/02 11:33:41;;;;;;;;;;;21.30;43.40;;;;;;485992;245;1059;-76
2022/05/02 11:35:44;;;;;;;;;;;21.30;43.40;;;;;;485938;245;1201;-76
2022/05/02 11:37:44;;;;;;;;;;;21.30;43.20;;;;;;486201;245;2195;-76
2022/05/02 11:39:45;;;;;;;;;;;21.40;43.10;;;;;;486049;245;1150;-76
2022/05/02 11:41:47;;;;;;;;;;;21.30;43.30;;;;;;486118;245;1206;-76
2022/05/02 11:43:48;;;;;;;;;;;21.30;43.30;;;;;;486194;245;1494;-76
2022/05/02 11:45:50;;;;;;;;;;;21.30;43.40;;;;;;485710;245;1134;-76
2022/05/02 11:47:51;;;;;;;;;;;21.40;43.20;;;;;;485700;245;1330;-76
2022/05/02 11:49:52;;;;;;;;;;;21.50;43.30;;;;;;485968;245;1143;-76
2022/05/02 11:51:53;;;;;;;;;;;21.30;43.40;;;;;;486076;245;1350;-76
2022/05/02 11:53:55;;;;;;;;;;;21.30;43.30;;;;;;485802;245;1397;-76
2022/05/02 11:55:56;;;;;;;;;;;21.40;43.40;;;;;;486239;245;1237;-76
2022/05/02 11:57:57;;;;;;;;;;;21.30;43.40;;;;;;485841;245;2111;-76
2022/05/02 11:59:59;;;;;;;;;;;21.30;43.50;;;;;;486227;245;1086;-76
2022/05/02 12:02:00;;;;;;;;;;;21.40;43.40;;;;;;485839;245;1127;-76
2022/05/02 12:04:01;;;;;;;;;;;21.40;43.30;;;;;;485924;245;1068;-75
2022/05/02 12:06:02;;;;;;;;;;;21.40;43.40;;;;;;485771;245;1347;-76
2022/05/02 12:08:04;;;;;;;;;;;21.40;43.30;;;;;;485677;245;1066;-76
2022/05/02 12:10:05;;;;;;;;;;;21.40;43.40;;;;;;485690;245;1212;-75
2022/05/02 12:12:07;;;;;;;;;;;21.50;43.40;;;;;;485647;245;1722;-76
2022/05/02 12:14:08;;;;;;;;;;;21.30;43.50;;;;;;485489;245;1083;-76
2022/05/02 12:16:09;;;;;;;;;;;21.20;43.70;;;;;;485591;243;1325;-76
2022/05/02 12:18:10;;;;;;;;;;;21.30;43.50;;;;;;485942;245;2187;-76
2022/05/02 12:20:12;;;;;;;;;;;21.40;43.20;;;;;;485764;245;1137;-76
2022/05/02 12:22:13;;;;;;;;;;;21.30;43.50;;;;;;486045;245;1212;-76